createdAt,value
2023-02-14T00:01:39.824Z,52412.13
2023-02-14T00:04:13.527Z,52431.41
2023-02-14T00:06:47.086Z,52421.37
2023-02-14T00:09:20.592Z,52406.49
2023-02-14T00:11:53.428Z,52420.96
2023-02-14T00:14:44.184Z,52413.33
2023-02-14T00:17:16.996Z,52412.12
2023-02-14T00:19:51.092Z,52414.94
2023-02-14T00:22:24.277Z,52427.39
2023-02-14T00:24:58.389Z,52420.56
2023-02-14T00:27:31.314Z,52414.13
2023-02-14T00:30:09.132Z,52425.38
2023-02-14T00:32:44.690Z,52427.39
2023-02-14T00:35:17.385Z,52417.34
2023-02-14T00:37:50.523Z,52406.50
2023-02-14T00:40:26.942Z,52425.38
2023-02-14T00:43:02.232Z,52410.52
2023-02-14T00:45:35.457Z,52431.01
2023-02-14T00:48:08.579Z,52411.32
2023-02-14T00:50:42.126Z,52396.85
2023-02-14T00:53:15.015Z,52408.10
2023-02-14T00:55:50.208Z,52420.96
2023-02-14T00:58:23.037Z,52417.75
2023-02-14T01:00:56.752Z,52425.79
2023-02-14T01:03:30.246Z,52424.18
2023-02-14T01:06:03.293Z,52414.54
2023-02-14T01:08:36.222Z,52392.43
2023-02-14T01:11:14.142Z,52408.91
2023-02-14T01:13:47.170Z,52424.18
2023-02-14T01:16:21.947Z,52423.78
2023-02-14T01:18:55.503Z,52417.34
2023-02-14T01:21:29.712Z,52411.73
2023-02-14T01:24:04.104Z,52415.74
2023-02-14T01:26:36.918Z,52404.89
2023-02-14T01:29:10.049Z,52426.59
2023-02-14T01:31:43.681Z,52424.98
2023-02-14T01:34:16.623Z,52428.60
2023-02-14T01:36:55.284Z,52427.79
2023-02-14T01:39:28.111Z,52422.17
2023-02-14T01:42:01.343Z,52405.29
2023-02-14T01:45:02.228Z,52444.68
2023-02-14T01:47:40.869Z,52439.86
2023-02-14T01:50:16.060Z,52425.79
2023-02-14T01:52:54.590Z,52410.11
2023-02-14T01:55:29.115Z,52424.58
2023-02-14T01:58:03.411Z,52430.61
2023-02-14T02:00:55.334Z,52423.78
2023-02-14T02:03:31.543Z,52439.85
2023-02-14T02:06:07.270Z,52410.91
2023-02-14T02:08:44.555Z,52430.61
2023-02-14T02:11:17.439Z,52412.12
2023-02-14T02:13:55.727Z,52406.90
2023-02-14T02:17:00.053Z,52434.23
2023-02-14T02:20:02.486Z,52409.71
2023-02-14T02:22:48.259Z,52421.37
2023-02-14T02:25:29.201Z,52430.61
2023-02-14T02:34:23.055Z,52413.33
2023-02-14T02:37:02.589Z,52427.80
2023-02-14T02:39:46.721Z,52429.80
2023-02-14T02:42:25.720Z,52430.61
2023-02-14T02:45:03.409Z,52429.80
2023-02-14T02:47:37.810Z,52420.56
2023-02-14T02:50:34.320Z,52431.41
2023-02-14T02:53:08.972Z,52431.41
2023-02-14T02:56:07.122Z,52438.64
2023-02-14T02:58:41.365Z,52430.61
2023-02-14T03:01:15.707Z,52437.45
2023-02-14T03:04:07.842Z,52417.75
2023-02-14T03:06:41.332Z,52433.43
2023-02-14T03:09:42.061Z,52408.10
2023-02-14T03:12:21.591Z,52424.98
2023-02-14T03:14:57.976Z,52442.26
2023-02-14T03:17:36.046Z,52423.78
2023-02-14T03:20:17.759Z,52432.62
2023-02-14T03:22:53.822Z,52423.38
2023-02-14T03:25:38.576Z,52409.31
2023-02-14T03:28:16.403Z,52418.55
2023-02-14T03:30:54.740Z,52425.38
2023-02-14T03:33:32.100Z,52417.75
2023-02-14T03:36:07.727Z,52422.98
2023-02-14T03:38:43.684Z,52410.91
2023-02-14T03:41:19.460Z,52421.37
2023-02-14T03:43:53.411Z,52427.80
2023-02-14T03:46:28.509Z,52415.74
2023-02-14T03:49:02.926Z,52426.59
2023-02-14T03:51:36.285Z,52422.57
2023-02-14T03:54:10.879Z,52433.82
2023-02-14T03:56:46.159Z,52445.08
2023-02-14T03:59:19.510Z,52447.49
2023-02-14T04:01:55.044Z,52440.66
2023-02-14T04:04:28.816Z,52425.79
2023-02-14T04:07:02.231Z,52437.44
2023-02-14T04:09:35.417Z,52429.80
2023-02-14T04:12:11.723Z,52409.31
2023-02-14T04:14:44.708Z,52431.01
2023-02-14T04:17:38.050Z,52438.24
2023-02-14T04:20:12.055Z,52427.80
2023-02-14T04:22:46.505Z,52417.75
2023-02-14T04:25:19.410Z,52433.82
2023-02-14T04:27:52.370Z,52419.76
2023-02-14T04:30:25.767Z,52436.24
2023-02-14T04:32:58.608Z,52429.41
2023-02-14T04:35:31.342Z,52417.75
2023-02-14T04:38:04.595Z,52441.06
2023-02-14T04:40:38.541Z,52423.77
2023-02-14T04:43:11.702Z,52446.68
2023-02-14T04:45:45.769Z,52425.39
2023-02-14T04:48:18.770Z,52440.66
2023-02-14T04:50:55.815Z,52437.84
2023-02-14T04:53:28.537Z,52437.45
2023-02-14T04:56:01.404Z,52431.41
2023-02-14T04:58:34.513Z,52432.61
2023-02-14T05:01:07.908Z,52426.19
2023-02-14T05:03:40.744Z,52439.85
2023-02-14T05:06:13.850Z,52441.05
2023-02-14T05:08:47.081Z,52418.55
2023-02-14T05:11:20.454Z,52438.24
2023-02-14T05:13:53.096Z,52426.59
2023-02-14T05:16:27.960Z,52423.38
2023-02-14T05:19:00.821Z,52410.11
2023-02-14T05:21:35.147Z,52424.58
2023-02-14T05:24:08.168Z,52443.47
2023-02-14T05:26:41.677Z,52432.21
2023-02-14T05:29:14.888Z,52430.21
2023-02-14T05:31:47.681Z,52423.77
2023-02-14T05:34:21.814Z,52431.01
2023-02-14T05:36:55.248Z,52415.74
2023-02-14T05:39:28.523Z,52418.55
2023-02-14T05:42:01.591Z,52426.99
2023-02-14T05:44:38.801Z,52431.01
2023-02-14T05:47:13.167Z,52418.96
2023-02-14T05:49:46.525Z,52435.83
2023-02-14T05:52:19.133Z,52444.27
2023-02-14T05:54:51.853Z,52408.11
2023-02-14T05:57:24.845Z,52418.95
2023-02-14T05:59:58.118Z,52445.88
2023-02-14T06:02:30.982Z,52430.21
2023-02-14T06:05:04.194Z,52435.43
2023-02-14T06:07:43.424Z,52441.46
2023-02-14T06:10:16.251Z,52419.36
2023-02-14T06:12:49.398Z,52442.67
2023-02-14T06:15:22.970Z,52415.34
2023-02-14T06:17:56.355Z,52430.21
2023-02-14T06:20:30.568Z,52424.18
2023-02-14T06:23:03.805Z,52427.39
2023-02-14T06:25:37.491Z,52433.02
2023-02-14T06:28:10.802Z,52442.67
2023-02-14T06:30:44.616Z,52435.83
2023-02-14T06:33:17.774Z,52429.80
2023-02-14T06:35:51.269Z,52432.62
2023-02-14T06:38:23.899Z,52429.41
2023-02-14T06:41:06.350Z,52438.64
2023-02-14T06:43:39.270Z,52434.23
2023-02-14T06:46:12.171Z,52441.46
2023-02-14T06:48:45.576Z,52437.84
2023-02-14T06:51:18.708Z,52434.23
2023-02-14T06:53:51.894Z,52449.90
2023-02-14T06:56:25.191Z,52436.64
2023-02-14T06:58:57.968Z,52435.02
2023-02-14T07:01:31.618Z,52459.14
2023-02-14T07:04:04.462Z,52430.21
2023-02-14T07:06:37.968Z,52431.01
2023-02-14T07:09:12.049Z,52446.29
2023-02-14T07:11:45.010Z,52443.47
2023-02-14T07:14:18.573Z,52430.61
2023-02-14T07:16:52.006Z,52436.64
2023-02-14T07:19:25.257Z,52457.13
2023-02-14T07:21:58.693Z,52435.83
2023-02-14T07:24:32.080Z,52433.02
2023-02-14T07:27:05.111Z,52445.88
2023-02-14T07:29:39.245Z,52420.96
2023-02-14T07:32:12.606Z,52450.30
2023-02-14T07:34:45.760Z,52457.54
2023-02-14T07:37:19.350Z,52459.14
2023-02-14T07:39:52.438Z,52461.15
2023-02-14T07:42:25.990Z,52451.91
2023-02-14T07:45:04.796Z,52457.54
2023-02-14T07:47:39.936Z,52441.46
2023-02-14T07:50:13.143Z,52437.44
2023-02-14T07:52:45.952Z,52449.50
2023-02-14T07:55:20.198Z,52452.31
2023-02-14T07:57:53.595Z,52441.86
2023-02-14T08:00:27.055Z,52446.69
2023-02-14T08:02:59.836Z,52449.50
2023-02-14T08:05:32.753Z,52450.30
2023-02-14T08:08:06.115Z,52457.54
2023-02-14T08:10:39.304Z,52458.34
2023-02-14T08:13:12.159Z,52447.89
2023-02-14T08:16:02.427Z,52435.43
2023-02-14T08:18:38.524Z,52441.05
2023-02-14T08:21:13.506Z,52428.60
2023-02-14T08:23:49.936Z,52447.89
2023-02-14T08:26:23.316Z,52439.45
2023-02-14T08:28:58.732Z,52425.79
2023-02-14T08:31:36.034Z,52438.65
2023-02-14T08:34:09.829Z,52433.42
2023-02-14T08:36:44.025Z,52441.06
2023-02-14T08:39:17.352Z,52436.24
2023-02-14T08:41:50.723Z,52431.41
2023-02-14T08:44:24.055Z,52449.50
2023-02-14T08:46:56.925Z,52441.86
2023-02-14T08:49:30.137Z,52427.39
2023-02-14T08:52:04.276Z,52426.59
2023-02-14T08:54:37.483Z,52438.24
2023-02-14T08:57:10.880Z,52420.56
2023-02-14T08:59:44.210Z,52427.39
2023-02-14T09:02:17.584Z,52426.99
2023-02-14T09:04:52.207Z,52425.38
2023-02-14T09:07:25.209Z,52429.00
2023-02-14T09:10:01.491Z,52421.36
2023-02-14T09:12:34.908Z,52430.21
2023-02-14T09:15:09.556Z,52418.55
2023-02-14T09:17:43.350Z,52433.82
2023-02-14T09:20:17.713Z,52441.05
2023-02-14T09:22:51.823Z,52433.02
2023-02-14T09:25:24.909Z,52442.67
2023-02-14T09:27:58.064Z,52434.23
2023-02-14T09:30:31.125Z,52431.81
2023-02-14T09:33:05.635Z,52425.79
2023-02-14T09:35:38.701Z,52422.97
2023-02-14T09:38:14.681Z,52424.98
2023-02-14T09:40:48.919Z,52424.18
2023-02-14T09:43:25.456Z,52431.41
2023-02-14T09:46:00.028Z,52425.38
2023-02-14T09:48:36.459Z,52444.68
2023-02-14T09:51:12.593Z,52443.06
2023-02-14T09:53:49.498Z,52431.01
2023-02-14T09:56:25.053Z,52434.23
2023-02-14T09:59:01.669Z,52431.41
2023-02-14T10:01:36.859Z,52413.33
2023-02-14T10:04:21.522Z,52422.97
2023-02-14T10:06:56.436Z,52413.33
2023-02-14T10:09:45.297Z,52408.11
2023-02-14T10:12:21.613Z,52417.35
2023-02-14T10:14:56.083Z,52431.81
2023-02-14T10:17:36.451Z,52433.82
2023-02-14T10:20:16.145Z,52416.14
2023-02-14T10:22:51.665Z,52421.77
2023-02-14T10:25:26.334Z,52413.33
2023-02-14T10:28:00.009Z,52407.70
2023-02-14T10:30:40.062Z,52420.16
2023-02-14T10:33:16.289Z,52414.94
2023-02-14T10:35:50.228Z,52422.97
2023-02-14T10:38:32.165Z,52414.13
2023-02-14T10:41:18.237Z,52399.26
2023-02-14T10:43:55.322Z,52411.32
2023-02-14T10:46:34.761Z,52401.67
2023-02-14T10:49:17.937Z,52408.51
2023-02-14T10:51:54.472Z,52403.68
2023-02-14T10:54:29.274Z,52401.68
2023-02-14T10:57:03.727Z,52395.65
2023-02-14T10:59:49.616Z,52394.04
2023-02-14T11:02:26.000Z,52383.59
2023-02-14T11:05:00.867Z,52384.79
2023-02-14T11:07:34.266Z,52377.16
2023-02-14T11:10:13.272Z,52396.85
2023-02-14T11:12:46.120Z,52384.79
2023-02-14T11:15:26.021Z,52385.20
2023-02-14T11:18:22.714Z,52398.86
2023-02-14T11:21:04.505Z,52372.74
2023-02-14T11:23:39.382Z,52373.54
2023-02-14T11:26:18.699Z,52372.74
2023-02-14T11:28:54.897Z,52377.56
2023-02-14T11:31:36.122Z,52379.57
2023-02-14T11:34:29.640Z,52383.59
2023-02-14T11:37:03.870Z,52383.99
2023-02-14T11:39:38.616Z,52377.16
2023-02-14T11:42:13.693Z,52376.35
2023-02-14T11:44:59.808Z,52370.33
2023-02-14T11:47:33.539Z,52391.23
2023-02-14T11:50:11.052Z,52389.62
2023-02-14T11:52:53.997Z,52372.34
2023-02-14T11:55:30.323Z,52381.98
2023-02-14T11:58:03.369Z,52364.30
2023-02-14T12:00:38.215Z,52355.86
2023-02-14T12:03:16.924Z,52331.35
2023-02-14T12:05:50.381Z,52356.26
2023-02-14T12:08:26.774Z,52340.59
2023-02-14T12:11:07.540Z,52358.27
2023-02-14T12:13:40.522Z,52340.99
2023-02-14T12:16:27.386Z,52359.48
2023-02-14T12:19:04.642Z,52359.48
2023-02-14T12:21:48.049Z,52365.50
2023-02-14T12:24:25.374Z,52371.53
2023-02-14T12:27:07.458Z,52367.12
2023-02-14T12:29:40.143Z,52368.32
2023-02-14T12:32:23.398Z,52368.32
2023-02-14T12:35:02.056Z,52372.34
2023-02-14T12:37:48.722Z,52358.67
2023-02-14T12:40:27.451Z,52372.74
2023-02-14T12:43:13.473Z,52377.16
2023-02-14T12:45:56.509Z,52383.19
2023-02-14T12:48:35.338Z,52377.56
2023-02-14T12:51:09.346Z,52375.96
2023-02-14T12:53:54.956Z,52386.80
2023-02-14T12:56:38.203Z,52394.84
2023-02-14T12:59:18.542Z,52384.79
2023-02-14T13:02:22.106Z,52392.83
2023-02-14T13:05:01.799Z,52370.73
2023-02-14T13:07:42.979Z,52401.68
2023-02-14T13:10:20.884Z,52386.40
2023-02-14T13:13:00.695Z,52389.21
2023-02-14T13:15:36.806Z,52388.82
2023-02-14T13:18:13.504Z,52409.71
2023-02-14T13:20:54.439Z,52401.68
2023-02-14T13:23:33.271Z,52402.08
2023-02-14T13:26:08.054Z,52383.59
2023-02-14T13:28:42.629Z,52410.91
2023-02-14T13:31:15.392Z,52395.65
2023-02-14T13:33:50.063Z,52382.38
2023-02-14T13:36:22.827Z,52409.31
2023-02-14T13:38:56.480Z,52410.51
2023-02-14T13:41:30.305Z,52400.87
2023-02-14T13:44:06.227Z,52408.10
2023-02-14T13:46:52.662Z,52412.93
2023-02-14T13:49:35.010Z,52407.30
2023-02-14T13:52:08.625Z,52403.68
2023-02-14T13:54:47.628Z,52392.43
2023-02-14T13:57:34.276Z,52411.72
2023-02-14T14:00:47.292Z,52397.65
2023-02-14T14:03:56.840Z,52417.34
2023-02-14T14:06:29.688Z,52404.89
2023-02-14T14:09:06.237Z,52401.27
2023-02-14T14:12:00.890Z,52419.76
2023-02-14T14:14:38.173Z,52428.20
2023-02-14T14:17:27.967Z,52405.29
2023-02-14T14:20:01.260Z,52420.97
2023-02-14T14:22:36.166Z,52419.76
2023-02-14T14:25:12.521Z,52415.34
2023-02-14T14:27:47.623Z,52418.96
2023-02-14T14:30:23.384Z,52418.95
2023-02-14T14:32:56.698Z,52411.32
2023-02-14T14:35:29.803Z,52412.93
2023-02-14T14:38:04.369Z,52433.82
2023-02-14T14:40:39.210Z,52415.34
2023-02-14T14:43:16.177Z,52422.17
2023-02-14T14:45:53.192Z,52428.20
2023-02-14T14:48:31.908Z,52436.24
2023-02-14T14:51:04.966Z,52412.52
2023-02-14T14:53:42.323Z,52422.57
2023-02-14T14:56:19.242Z,52417.75
2023-02-14T14:58:52.278Z,52419.76
2023-02-14T15:01:37.412Z,52406.90
2023-02-14T15:04:17.373Z,52421.37
2023-02-14T15:06:51.409Z,52404.09
2023-02-14T15:09:25.642Z,52444.68
2023-02-14T15:12:19.474Z,52427.40
2023-02-14T15:14:54.922Z,52406.09
2023-02-14T15:17:29.046Z,52420.96
2023-02-14T15:20:03.762Z,52417.35
2023-02-14T15:22:45.807Z,52414.54
2023-02-14T15:25:22.253Z,52412.12
2023-02-14T15:27:55.033Z,52415.74
2023-02-14T15:30:34.134Z,52431.82
2023-02-14T15:33:07.943Z,52406.90
2023-02-14T15:35:42.798Z,52417.75
2023-02-14T15:38:16.024Z,52412.12
2023-02-14T15:40:48.961Z,52412.52
2023-02-14T15:43:30.631Z,52425.79
2023-02-14T15:46:15.461Z,52417.75
2023-02-14T15:48:48.397Z,52436.64
2023-02-14T15:51:22.616Z,52438.64
2023-02-14T15:53:58.497Z,52423.38
2023-02-14T15:56:31.716Z,52443.47
2023-02-14T15:59:07.285Z,52436.64
2023-02-14T16:01:40.208Z,52443.87
2023-02-14T16:04:13.454Z,52443.88
2023-02-14T16:07:05.174Z,52426.59
2023-02-14T16:09:38.850Z,52447.89
2023-02-14T16:12:32.960Z,52424.98
2023-02-14T16:15:18.278Z,52434.23
2023-02-14T16:17:51.667Z,52422.97
2023-02-14T16:20:31.341Z,52427.39
2023-02-14T16:23:24.838Z,52424.18
2023-02-14T16:25:58.780Z,52428.60
2023-02-14T16:28:32.843Z,52443.07
2023-02-14T16:31:10.479Z,52436.64
2023-02-14T16:33:43.317Z,52436.24
2023-02-14T16:36:21.322Z,52440.66
2023-02-14T16:38:54.654Z,52444.68
2023-02-14T16:41:29.098Z,52443.06
2023-02-14T16:44:01.918Z,52459.14
2023-02-14T16:46:36.609Z,52435.02
2023-02-14T16:49:09.669Z,52439.85
2023-02-14T16:51:44.121Z,52452.71
2023-02-14T16:54:19.580Z,52441.46
2023-02-14T16:56:55.357Z,52451.91
2023-02-14T16:59:28.762Z,52458.74
2023-02-14T17:02:02.669Z,52451.11
2023-02-14T17:04:36.162Z,52435.43
2023-02-14T17:07:09.326Z,52453.92
2023-02-14T17:09:45.051Z,52428.20
2023-02-14T17:12:20.130Z,52438.64
2023-02-14T17:14:57.733Z,52448.70
2023-02-14T17:17:31.235Z,52451.51
2023-02-14T17:20:04.963Z,52434.63
2023-02-14T17:22:38.245Z,52451.51
2023-02-14T17:25:11.654Z,52441.86
2023-02-14T17:27:46.504Z,52443.07
2023-02-14T17:30:20.533Z,52461.55
2023-02-14T17:32:54.062Z,52451.10
2023-02-14T17:35:27.123Z,52431.81
2023-02-14T17:38:01.059Z,52442.67
2023-02-14T17:40:34.621Z,52448.29
2023-02-14T17:43:07.885Z,52456.32
2023-02-14T17:45:41.239Z,52437.44
2023-02-14T17:48:16.042Z,52449.90
2023-02-14T17:50:49.818Z,52455.93
2023-02-14T17:53:22.889Z,52444.27
2023-02-14T17:55:55.996Z,52461.15
2023-02-14T17:58:29.107Z,52454.72
2023-02-14T18:01:06.409Z,52455.13
2023-02-14T18:03:39.609Z,52452.31
2023-02-14T18:06:14.277Z,52459.14
2023-02-14T18:08:49.945Z,52437.04
2023-02-14T18:11:23.635Z,52457.54
2023-02-14T18:13:58.399Z,52444.27
2023-02-14T18:16:31.641Z,52452.31
2023-02-14T18:19:06.628Z,52443.07
2023-02-14T18:21:41.502Z,52437.04
2023-02-14T18:24:17.702Z,52440.66
2023-02-14T18:26:50.991Z,52459.14
2023-02-14T18:29:23.580Z,52449.50
2023-02-14T18:31:58.298Z,52451.10
2023-02-14T18:34:32.790Z,52435.83
2023-02-14T18:37:06.436Z,52430.21
2023-02-14T18:39:39.229Z,52443.06
2023-02-14T18:42:11.983Z,52436.64
2023-02-14T18:44:45.814Z,52435.43
2023-02-14T18:47:18.691Z,52438.24
2023-02-14T18:49:51.365Z,52436.64
2023-02-14T18:52:24.755Z,52449.09
2023-02-14T18:55:00.166Z,52454.73
2023-02-14T18:57:33.769Z,52446.69
2023-02-14T19:00:12.213Z,52438.24
2023-02-14T19:02:47.721Z,52447.89
2023-02-14T19:05:20.561Z,52447.89
2023-02-14T19:07:58.503Z,52445.48
2023-02-14T19:10:31.570Z,52445.48
2023-02-14T19:13:04.300Z,52444.27
2023-02-14T19:15:37.975Z,52451.10
2023-02-14T19:18:11.183Z,52441.86
2023-02-14T19:20:43.997Z,52447.49
2023-02-14T19:23:17.330Z,52453.52
2023-02-14T19:25:50.036Z,52419.76
2023-02-14T19:28:23.150Z,52457.54
2023-02-14T19:30:56.288Z,52458.34
2023-02-14T19:33:29.405Z,52447.89
2023-02-14T19:36:07.821Z,52429.00
2023-02-14T19:38:40.652Z,52433.02
2023-02-14T19:41:17.930Z,52453.52
2023-02-14T19:43:51.467Z,52449.90
2023-02-14T19:46:24.499Z,52445.88
2023-02-14T19:48:58.548Z,52441.86
2023-02-14T19:51:32.459Z,52442.66
2023-02-14T19:54:07.376Z,52438.65
2023-02-14T19:56:42.232Z,52450.70
2023-02-14T19:59:20.427Z,52441.86
2023-02-14T20:01:53.818Z,52458.34
2023-02-14T20:04:27.662Z,52439.05
2023-02-14T20:07:00.557Z,52447.49
2023-02-14T20:09:33.762Z,52458.74
2023-02-14T20:12:09.231Z,52429.40
2023-02-14T20:14:50.783Z,52436.64
2023-02-14T20:17:27.098Z,52452.31
2023-02-14T20:20:00.124Z,52447.49
2023-02-14T20:22:33.363Z,52440.25
2023-02-14T20:25:08.015Z,52449.90
2023-02-14T20:27:42.115Z,52448.70
2023-02-14T20:30:21.065Z,52451.91
2023-02-14T20:32:57.558Z,52450.70
2023-02-14T20:35:34.597Z,52464.36
2023-02-14T20:38:08.749Z,52459.95
2023-02-14T20:40:44.753Z,52435.03
2023-02-14T20:43:19.468Z,52440.25
2023-02-14T20:45:52.353Z,52437.04
2023-02-14T20:48:26.190Z,52449.50
2023-02-14T20:50:59.626Z,52451.91
2023-02-14T20:53:35.643Z,52431.01
2023-02-14T20:56:08.833Z,52446.68
2023-02-14T20:58:41.611Z,52443.07
2023-02-14T21:01:15.697Z,52449.09
2023-02-14T21:03:50.848Z,52433.82
2023-02-14T21:06:24.927Z,52439.86
2023-02-14T21:08:59.231Z,52442.66
2023-02-14T21:11:32.077Z,52451.11
2023-02-14T21:14:05.345Z,52414.53
2023-02-14T21:16:39.998Z,52440.66
2023-02-14T21:19:13.145Z,52448.29
2023-02-14T21:21:46.861Z,52443.47
2023-02-14T21:24:19.936Z,52449.50
2023-02-14T21:26:54.047Z,52449.50
2023-02-14T21:29:27.111Z,52463.16
2023-02-14T21:32:02.478Z,52455.13
2023-02-14T21:34:38.456Z,52461.15
2023-02-14T21:37:11.361Z,52448.70
2023-02-14T21:39:45.829Z,52457.94
2023-02-14T21:42:19.113Z,52455.93
2023-02-14T21:45:09.978Z,52455.93
2023-02-14T21:47:42.760Z,52445.48
2023-02-14T21:50:34.497Z,52458.74
2023-02-14T21:53:08.722Z,52465.98
2023-02-14T21:55:45.850Z,52455.52
2023-02-14T21:58:18.713Z,52441.86
2023-02-14T22:00:51.512Z,52459.95
2023-02-14T22:03:24.539Z,52458.34
2023-02-14T22:06:03.270Z,52457.54
2023-02-14T22:08:36.203Z,52449.49
2023-02-14T22:11:09.727Z,52443.07
2023-02-14T22:13:43.148Z,52452.31
2023-02-14T22:16:17.036Z,52472.80
2023-02-14T22:18:50.780Z,52454.73
2023-02-14T22:21:25.576Z,52469.59
2023-02-14T22:23:58.336Z,52455.52
2023-02-14T22:26:34.038Z,52455.13
2023-02-14T22:29:07.519Z,52459.54
2023-02-14T22:31:42.375Z,52447.89
2023-02-14T22:34:17.995Z,52463.16
2023-02-14T22:36:51.472Z,52451.11
2023-02-14T22:39:24.791Z,52469.99
2023-02-14T22:41:58.642Z,52447.49
2023-02-14T22:44:31.703Z,52464.37
2023-02-14T22:47:05.396Z,52462.76
2023-02-14T22:49:38.313Z,52464.77
2023-02-14T22:52:11.153Z,52450.71
2023-02-14T22:54:44.011Z,52445.48
2023-02-14T22:57:19.620Z,52458.34
2023-02-14T22:59:53.565Z,52442.26
2023-02-14T23:02:26.673Z,52448.29
2023-02-14T23:04:59.504Z,52436.64
2023-02-14T23:07:32.479Z,52451.91
2023-02-14T23:10:05.321Z,52465.17
2023-02-14T23:12:56.140Z,52461.15
2023-02-14T23:15:46.998Z,52441.86
2023-02-14T23:18:36.916Z,52451.91
2023-02-14T23:21:32.649Z,52457.53
2023-02-14T23:24:05.757Z,52449.09
2023-02-14T23:26:38.889Z,52459.14
2023-02-14T23:29:12.127Z,52455.52
2023-02-14T23:31:45.052Z,52447.89
2023-02-14T23:34:20.353Z,52455.13
2023-02-14T23:36:53.733Z,52462.76
2023-02-14T23:39:26.451Z,52446.68
2023-02-14T23:41:59.482Z,52457.94
2023-02-14T23:44:33.409Z,52445.88
2023-02-14T23:47:07.109Z,52481.25
2023-02-14T23:49:40.665Z,52453.11
2023-02-14T23:52:13.933Z,52459.14
2023-02-14T23:54:47.271Z,52472.00
2023-02-14T23:57:20.556Z,52456.73
2023-02-14T23:59:53.390Z,52447.09
